Terminal Aerodrome Forecast
Issued by NWS Rapid City, SD

Home | Current Version | Previous Version | Text Only | Print | Product List | Glossary On
Versions: 1 2 3 4 5 6 7 8 9 10 11 12 13 14 15 16 17 18 19 20 21 22 23
311
FTUS43 KUNR 281120
TAFRAP
TAF
KRAP 281120Z 2812/2912 VRB05KT P6SM SCT060 BKN120
     FM281500 VRB05KT P6SM VCTS BKN080CB
      TEMPO 2816/2820 5SM TSRA BKN050CB
     FM282100 11010KT P6SM SCT040 BKN100=

USA.gov is the U.S. government's official web portal to all federal, state and local government web resources and services.